createdAt,value
2022-12-19T00:00:48.933Z,139.07
2022-12-19T00:03:37.458Z,141.15
2022-12-19T00:06:19.841Z,140.50
2022-12-19T00:09:08.266Z,142.43
2022-12-19T00:11:50.933Z,138.68
2022-12-19T00:14:39.177Z,142.85
2022-12-19T00:17:20.986Z,138.23
2022-12-19T00:20:09.425Z,139.93
2022-12-19T00:22:52.890Z,138.15
2022-12-19T00:25:41.260Z,142.18
2022-12-19T00:28:23.863Z,137.85
2022-12-19T00:31:13.261Z,140.07
2022-12-19T00:33:56.923Z,135.57
2022-12-19T00:36:46.921Z,131.43
2022-12-19T00:39:30.223Z,136.75
2022-12-19T00:42:18.892Z,135.27
2022-12-19T00:45:07.978Z,130.65
2022-12-19T00:47:56.269Z,134.75
2022-12-19T00:50:41.931Z,131.30
2022-12-19T00:53:30.203Z,131.45
2022-12-19T00:56:14.920Z,134.90
2022-12-19T00:59:04.230Z,134.07
2022-12-19T01:01:49.233Z,134.75
2022-12-19T01:04:41.584Z,138.48
2022-12-19T01:07:23.935Z,138.52
2022-12-19T01:10:17.277Z,141.10
2022-12-19T01:12:59.939Z,135.68
2022-12-19T01:15:43.214Z,138.25
2022-12-19T01:18:31.838Z,141.48
2022-12-19T01:21:20.196Z,137.63
2022-12-19T01:24:02.876Z,142.88
2022-12-19T01:26:45.116Z,143.73
2022-12-19T01:29:34.707Z,143.25
2022-12-19T01:32:26.897Z,144.40
2022-12-19T01:35:09.873Z,144.93
2022-12-19T01:38:09.926Z,142.20
2022-12-19T01:41:11.895Z,141.65
2022-12-19T01:44:10.824Z,139.85
2022-12-19T01:47:00.801Z,142.88
2022-12-19T01:49:49.878Z,144.98
2022-12-19T01:52:33.292Z,145.13
2022-12-19T01:55:21.832Z,143.27
2022-12-19T01:58:07.163Z,143.32
2022-12-19T02:00:55.898Z,148.10
2022-12-19T02:03:41.763Z,144.40
2022-12-19T02:06:31.855Z,153.68
2022-12-19T02:09:14.182Z,150.07
2022-12-19T02:12:02.946Z,150.60
2022-12-19T02:14:51.902Z,155.82
2022-12-19T02:18:00.781Z,155.73
2022-12-19T02:21:27.898Z,154.38
2022-12-19T02:24:33.372Z,153.15
2022-12-19T02:27:53.740Z,155.95
2022-12-19T02:31:02.274Z,156.00
2022-12-19T02:34:20.776Z,157.25
2022-12-19T02:37:44.024Z,151.18
2022-12-19T02:40:43.999Z,152.65
2022-12-19T02:43:31.180Z,161.45
2022-12-19T02:46:22.038Z,158.63
2022-12-19T02:49:05.517Z,157.85
2022-12-19T02:51:54.002Z,166.30
2022-12-19T02:54:45.073Z,167.15
2022-12-19T02:57:37.890Z,180.82
2022-12-19T03:00:23.802Z,175.80
2022-12-19T03:03:31.998Z,173.57
2022-12-19T03:06:32.202Z,186.02
2022-12-19T03:09:28.939Z,190.20
2022-12-19T03:12:23.874Z,188.13
2022-12-19T03:15:14.183Z,186.10
2022-12-19T03:17:57.902Z,186.20
2022-12-19T03:20:49.340Z,186.52
2022-12-19T03:23:37.885Z,184.43
2022-12-19T03:26:23.140Z,181.45
2022-12-19T03:29:31.852Z,184.05
2022-12-19T03:32:16.798Z,184.05
2022-12-19T03:35:13.847Z,178.75
2022-12-19T03:38:03.256Z,177.73
2022-12-19T03:40:53.846Z,176.43
2022-12-19T03:43:37.489Z,176.63
2022-12-19T03:46:38.804Z,171.00
2022-12-19T03:49:21.248Z,173.63
2022-12-19T03:52:19.826Z,169.23
2022-12-19T03:55:19.808Z,173.73
2022-12-19T03:58:13.997Z,171.38
2022-12-19T04:01:03.206Z,179.45
2022-12-19T04:03:46.062Z,168.60
2022-12-19T04:06:38.188Z,172.57
2022-12-19T04:09:30.908Z,170.93
2022-12-19T04:12:17.163Z,171.53
2022-12-19T04:15:05.937Z,169.18
2022-12-19T04:17:59.340Z,170.85
2022-12-19T04:20:52.904Z,168.70
2022-12-19T04:23:59.810Z,166.23
2022-12-19T04:26:53.176Z,170.23
2022-12-19T04:29:38.934Z,177.47
2022-12-19T04:32:22.498Z,170.18
2022-12-19T04:35:10.799Z,173.43
2022-12-19T04:38:00.372Z,172.77
2022-12-19T04:40:43.808Z,169.63
2022-12-19T04:43:33.195Z,180.48
2022-12-19T04:46:15.806Z,179.80
2022-12-19T04:49:10.808Z,179.88
2022-12-19T04:51:53.122Z,179.98
2022-12-19T04:54:42.845Z,182.43
2022-12-19T04:57:31.414Z,185.13
2022-12-19T05:00:15.845Z,192.55
2022-12-19T05:02:58.449Z,190.05
2022-12-19T05:05:47.813Z,189.80
2022-12-19T05:08:42.835Z,187.93
2022-12-19T05:11:31.790Z,184.68
2022-12-19T05:14:20.900Z,183.68
2022-12-19T05:17:03.097Z,178.73
2022-12-19T05:19:51.887Z,177.35
2022-12-19T05:22:40.861Z,166.07
2022-12-19T05:25:23.136Z,166.30
2022-12-19T05:28:11.908Z,159.10
2022-12-19T05:30:55.193Z,158.52
2022-12-19T05:33:44.811Z,158.38
2022-12-19T05:36:32.327Z,142.18
2022-12-19T05:39:22.811Z,148.65
2022-12-19T05:42:12.626Z,146.10
2022-12-19T05:44:55.029Z,143.68
2022-12-19T05:47:43.831Z,148.20
2022-12-19T05:50:32.243Z,147.88
2022-12-19T05:53:24.546Z,131.25
2022-12-19T05:56:10.931Z,143.85
2022-12-19T05:58:59.883Z,159.48
2022-12-19T06:01:42.478Z,165.48
2022-12-19T06:04:31.924Z,183.55
2022-12-19T06:07:21.342Z,177.02
2022-12-19T06:10:09.849Z,180.70
2022-12-19T06:12:52.600Z,187.25
2022-12-19T06:18:24.327Z,188.70
2022-12-19T06:21:18.875Z,187.60
2022-12-19T06:24:02.192Z,190.90
2022-12-19T06:26:50.757Z,201.02
2022-12-19T06:29:39.794Z,196.75
2022-12-19T06:32:22.190Z,187.65
2022-12-19T06:35:10.891Z,178.80
2022-12-19T06:37:56.560Z,190.90
2022-12-19T06:41:07.939Z,175.55
2022-12-19T06:43:57.138Z,166.00
2022-12-19T06:46:40.856Z,164.23
2022-12-19T06:49:29.158Z,154.38
2022-12-19T06:52:11.879Z,156.38
2022-12-19T06:55:00.847Z,155.45
2022-12-19T06:57:47.129Z,155.43
2022-12-19T07:00:36.021Z,153.15
2022-12-19T07:03:21.144Z,150.35
2022-12-19T07:06:09.803Z,145.65
2022-12-19T07:09:04.726Z,139.73
2022-12-19T07:11:53.896Z,132.45
2022-12-19T07:14:36.204Z,134.63
2022-12-19T07:17:25.955Z,134.32
2022-12-19T07:20:12.241Z,136.68
2022-12-19T07:23:00.850Z,142.70
2022-12-19T07:25:43.179Z,142.27
2022-12-19T07:28:31.796Z,143.88
2022-12-19T07:31:14.402Z,141.43
2022-12-19T07:34:02.808Z,140.32
2022-12-19T07:36:45.191Z,140.82
2022-12-19T07:39:33.939Z,142.25
2022-12-19T07:42:16.229Z,143.05
2022-12-19T07:45:05.882Z,143.00
2022-12-19T07:47:49.015Z,146.40
2022-12-19T07:50:37.868Z,149.02
2022-12-19T07:53:20.180Z,148.57
2022-12-19T07:56:08.816Z,150.60
2022-12-19T07:58:51.186Z,153.48
2022-12-19T08:01:40.008Z,169.82
2022-12-19T08:04:22.273Z,178.20
2022-12-19T08:07:10.963Z,182.50
2022-12-19T08:09:59.161Z,177.20
2022-12-19T08:12:41.944Z,176.23
2022-12-19T08:15:30.332Z,171.87
2022-12-19T08:18:12.864Z,172.85
2022-12-19T08:21:01.813Z,178.52
2022-12-19T08:23:53.787Z,169.80
2022-12-19T08:26:40.626Z,165.23
2022-12-19T08:29:31.846Z,170.13
2022-12-19T08:32:21.822Z,175.73
2022-12-19T08:35:04.892Z,174.82
2022-12-19T08:37:47.209Z,173.18
2022-12-19T08:40:35.829Z,171.75
2022-12-19T08:43:24.885Z,165.35
2022-12-19T08:46:08.164Z,158.68
2022-12-19T08:48:56.857Z,156.25
2022-12-19T08:51:39.150Z,157.15
2022-12-19T08:54:27.900Z,155.32
2022-12-19T08:57:10.443Z,155.68
2022-12-19T08:59:58.835Z,141.20
2022-12-19T09:02:49.051Z,129.40
2022-12-19T09:06:05.047Z,125.57
2022-12-19T09:08:40.863Z,119.22
2022-12-19T09:11:39.355Z,119.05
2022-12-19T09:14:41.862Z,119.93
2022-12-19T09:17:24.194Z,114.78
2022-12-19T09:20:18.105Z,117.22
2022-12-19T09:23:03.118Z,115.05
2022-12-19T09:25:51.902Z,119.10
2022-12-19T09:28:40.942Z,118.10
2022-12-19T09:31:26.311Z,117.63
2022-12-19T09:34:14.843Z,127.40
2022-12-19T09:36:57.057Z,144.25
2022-12-19T09:39:45.752Z,150.55
2022-12-19T09:42:54.925Z,151.45
2022-12-19T09:46:15.251Z,148.88
2022-12-19T09:49:05.836Z,147.65
2022-12-19T09:52:13.308Z,149.40
2022-12-19T09:55:06.872Z,146.90
2022-12-19T09:58:05.868Z,144.98
2022-12-19T10:01:04.900Z,142.60
2022-12-19T10:03:52.227Z,141.82
2022-12-19T10:07:21.232Z,143.40
2022-12-19T10:12:20.701Z,137.15
2022-12-19T10:13:16.310Z,131.93
2022-12-19T10:16:28.232Z,130.82
2022-12-19T10:19:31.899Z,126.97
2022-12-19T10:22:41.128Z,124.80
2022-12-19T10:25:48.802Z,122.55
2022-12-19T10:28:43.180Z,122.10
2022-12-19T10:31:47.025Z,123.53
2022-12-19T10:34:46.449Z,121.93
2022-12-19T10:37:51.890Z,124.65
2022-12-19T10:40:58.315Z,127.15
2022-12-19T10:44:13.803Z,127.50
2022-12-19T10:46:58.488Z,128.73
2022-12-19T10:49:47.912Z,126.28
2022-12-19T10:52:58.192Z,125.18
2022-12-19T10:56:01.893Z,124.80
2022-12-19T10:58:50.167Z,128.95
2022-12-19T11:01:42.958Z,128.25
2022-12-19T11:04:42.835Z,126.18
2022-12-19T11:07:32.251Z,127.22
2022-12-19T11:13:25.516Z,125.28
2022-12-19T11:19:27.859Z,115.85
2022-12-19T11:27:03.432Z,109.57
2022-12-19T11:29:34.766Z,107.68
2022-12-19T11:29:40.717Z,107.75
2022-12-19T11:30:05.171Z,105.07
2022-12-19T11:34:09.807Z,106.70
2022-12-19T11:37:29.156Z,109.50
2022-12-19T11:40:50.076Z,109.35
2022-12-19T11:43:44.646Z,110.72
2022-12-19T11:46:41.940Z,113.78
2022-12-19T11:49:49.072Z,112.60
2022-12-19T11:56:01.368Z,113.15
2022-12-19T12:01:48.519Z,116.45
2022-12-19T12:05:09.928Z,117.03
2022-12-19T12:08:20.005Z,116.53
2022-12-19T12:18:39.844Z,120.50
2022-12-19T12:24:56.213Z,118.70
2022-12-19T12:31:09.512Z,124.25
2022-12-19T12:31:19.068Z,121.35
2022-12-19T12:31:39.475Z,119.63
2022-12-19T12:31:53.450Z,122.80
2022-12-19T12:35:56.944Z,124.50
2022-12-19T12:38:00.386Z,125.05
2022-12-19T12:39:25.438Z,125.10
2022-12-19T12:42:24.150Z,125.43
2022-12-19T12:45:30.793Z,127.88
2022-12-19T12:48:31.306Z,127.95
2022-12-19T12:51:20.787Z,130.63
2022-12-19T12:54:22.120Z,131.60
2022-12-19T12:57:11.735Z,130.70
2022-12-19T13:00:01.867Z,131.60
2022-12-19T13:02:53.892Z,127.95
2022-12-19T13:05:54.904Z,133.23
2022-12-19T13:09:03.624Z,129.82
2022-12-19T13:12:23.693Z,129.95
2022-12-19T13:15:38.180Z,132.77
2022-12-19T13:18:41.771Z,137.15
2022-12-19T13:21:26.049Z,137.00
2022-12-19T13:24:29.719Z,137.13
2022-12-19T13:30:21.224Z,136.07
2022-12-19T13:33:02.726Z,136.00
2022-12-19T13:39:46.497Z,141.20
2022-12-19T13:39:55.761Z,141.57
2022-12-19T13:42:36.809Z,137.18
2022-12-19T13:45:43.864Z,132.95
2022-12-19T13:48:43.521Z,136.38
2022-12-19T13:51:26.872Z,137.82
2022-12-19T13:54:32.328Z,137.83
2022-12-19T13:57:32.873Z,137.35
2022-12-19T14:00:26.790Z,136.05
2022-12-19T14:03:10.489Z,138.60
2022-12-19T14:06:16.118Z,138.05
2022-12-19T14:09:41.548Z,135.60
2022-12-19T14:13:58.198Z,141.10
2022-12-19T14:16:03.764Z,133.32
2022-12-19T14:18:57.980Z,141.40
2022-12-19T14:24:49.111Z,134.45
2022-12-19T14:28:25.963Z,141.35
2022-12-19T14:30:42.464Z,139.63
2022-12-19T14:34:04.780Z,142.88
2022-12-19T14:37:03.089Z,144.43
2022-12-19T14:39:45.806Z,141.10
2022-12-19T14:43:56.859Z,144.55
2022-12-19T14:52:51.162Z,146.13
2022-12-19T14:54:08.630Z,148.38
2022-12-19T14:54:30.695Z,147.10
2022-12-19T14:56:16.204Z,146.85
2022-12-19T14:59:08.895Z,147.18
2022-12-19T15:02:27.831Z,150.52
2022-12-19T15:05:20.923Z,148.32
2022-12-19T15:08:03.499Z,148.95
2022-12-19T15:11:04.924Z,153.10
2022-12-19T15:14:57.681Z,153.27
2022-12-19T15:17:03.790Z,149.63
2022-12-19T15:19:53.115Z,151.02
2022-12-19T15:22:34.838Z,153.32
2022-12-19T15:26:02.048Z,152.07
2022-12-19T15:28:31.159Z,149.38
2022-12-19T15:31:48.830Z,149.60
2022-12-19T15:34:48.433Z,148.10
2022-12-19T15:37:39.051Z,148.07
2022-12-19T15:40:25.772Z,151.57
2022-12-19T15:43:53.280Z,148.07
2022-12-19T15:46:20.306Z,149.27
2022-12-19T15:49:09.697Z,152.65
2022-12-19T15:51:52.161Z,149.23
2022-12-19T15:54:49.683Z,152.20
2022-12-19T15:57:45.874Z,146.00
2022-12-19T16:00:33.905Z,146.50
2022-12-19T16:03:28.017Z,151.15
2022-12-19T16:06:26.147Z,150.18
2022-12-19T16:09:08.800Z,152.02
2022-12-19T16:12:00.223Z,151.48
2022-12-19T16:14:41.731Z,157.80
2022-12-19T16:17:26.142Z,148.68
2022-12-19T16:20:14.906Z,155.15
2022-12-19T16:23:04.162Z,156.45
2022-12-19T16:25:56.068Z,159.52
2022-12-19T16:28:39.422Z,152.13
2022-12-19T16:31:37.982Z,154.18
2022-12-19T16:34:23.417Z,158.55
2022-12-19T16:37:11.776Z,152.65
2022-12-19T16:40:00.834Z,155.85
2022-12-19T16:42:43.152Z,154.25
2022-12-19T16:45:33.787Z,157.57
2022-12-19T16:48:45.758Z,158.10
2022-12-19T16:51:36.779Z,158.65
2022-12-19T16:54:22.837Z,160.98
2022-12-19T16:57:09.646Z,160.45
2022-12-19T16:59:58.784Z,163.60
2022-12-19T17:02:43.875Z,163.80
2022-12-19T17:05:42.810Z,163.73
2022-12-19T17:08:25.778Z,161.18
2022-12-19T17:11:15.997Z,162.40
2022-12-19T17:14:05.998Z,159.93
2022-12-19T17:16:54.836Z,158.82
2022-12-19T17:19:42.708Z,162.07
2022-12-19T17:22:33.751Z,160.02
2022-12-19T17:25:23.946Z,161.25
2022-12-19T17:28:13.038Z,164.75
2022-12-19T17:30:58.619Z,164.25
2022-12-19T17:33:53.911Z,172.63
2022-12-19T17:36:37.886Z,172.38
2022-12-19T17:39:52.705Z,172.85
2022-12-19T17:42:37.585Z,171.93
2022-12-19T17:45:26.885Z,171.73
2022-12-19T17:48:29.921Z,171.98
2022-12-19T17:51:12.323Z,174.13
2022-12-19T17:54:00.784Z,173.02
2022-12-19T17:56:43.112Z,175.90
2022-12-19T17:59:31.793Z,181.55
2022-12-19T18:02:31.328Z,182.88
2022-12-19T18:05:39.841Z,183.38
2022-12-19T18:08:31.109Z,186.38
2022-12-19T18:11:38.304Z,177.82
2022-12-19T18:14:31.851Z,177.32
2022-12-19T18:17:17.530Z,181.63
2022-12-19T18:20:06.689Z,180.07
2022-12-19T18:22:49.490Z,175.93
2022-12-19T18:25:43.838Z,175.90
2022-12-19T18:28:33.645Z,174.98
2022-12-19T18:31:24.837Z,175.13
2022-12-19T18:34:15.229Z,170.50
2022-12-19T18:36:58.115Z,164.02
2022-12-19T18:39:46.785Z,166.10
2022-12-19T18:42:35.700Z,168.32
2022-12-19T18:45:37.780Z,169.50
2022-12-19T18:48:39.665Z,174.40
2022-12-19T18:51:31.755Z,172.93
2022-12-19T18:54:36.663Z,167.38
2022-12-19T18:57:25.784Z,173.38
2022-12-19T19:00:09.880Z,174.15
2022-12-19T19:03:09.928Z,175.32
2022-12-19T19:05:53.254Z,180.23
2022-12-19T19:08:42.859Z,177.35
2022-12-19T19:11:36.145Z,170.57
2022-12-19T19:14:24.747Z,176.75
2022-12-19T19:17:07.306Z,178.88
2022-12-19T19:19:55.734Z,180.20
2022-12-19T19:22:44.753Z,173.27
2022-12-19T19:25:27.279Z,177.13
2022-12-19T19:28:16.778Z,178.20
2022-12-19T19:31:07.917Z,178.25
2022-12-19T19:33:56.019Z,174.65
2022-12-19T19:36:47.759Z,174.40
2022-12-19T19:39:37.631Z,179.35
2022-12-19T19:42:28.109Z,178.65
2022-12-19T19:45:17.743Z,181.13
2022-12-19T19:48:00.276Z,179.23
2022-12-19T19:50:48.691Z,181.88
2022-12-19T19:53:37.676Z,180.50
2022-12-19T19:56:27.074Z,182.88
2022-12-19T19:59:09.828Z,184.60
2022-12-19T20:01:58.319Z,181.65
2022-12-19T20:04:40.761Z,177.02
2022-12-19T20:07:30.035Z,178.45
2022-12-19T20:10:14.732Z,177.95
2022-12-19T20:13:03.791Z,178.38
2022-12-19T20:15:49.745Z,178.38
2022-12-19T20:18:38.807Z,179.07
2022-12-19T20:21:21.251Z,181.73
2022-12-19T20:24:09.757Z,186.85
2022-12-19T20:26:52.221Z,180.43
2022-12-19T20:29:40.751Z,177.82
2022-12-19T20:32:23.099Z,178.57
2022-12-19T20:35:15.188Z,178.27
2022-12-19T20:38:03.803Z,178.00
2022-12-19T20:40:56.828Z,179.73
2022-12-19T20:43:39.736Z,172.82
2022-12-19T20:46:30.193Z,179.43
2022-12-19T20:49:12.808Z,182.18
2022-12-19T20:51:54.986Z,181.70
2022-12-19T20:54:45.714Z,173.80
2022-12-19T20:57:36.178Z,174.07
2022-12-19T21:00:18.706Z,180.25
2022-12-19T21:06:13.208Z,174.38
2022-12-19T21:09:03.711Z,180.27
2022-12-19T21:11:52.724Z,180.05
2022-12-19T21:14:41.084Z,180.57
2022-12-19T21:17:23.723Z,175.90
2022-12-19T21:20:06.496Z,183.00
2022-12-19T21:22:55.792Z,185.95
2022-12-19T21:25:37.940Z,181.88
2022-12-19T21:28:26.816Z,184.75
2022-12-19T21:31:18.300Z,180.18
2022-12-19T21:34:09.704Z,181.05
2022-12-19T21:36:51.930Z,182.60
2022-12-19T21:39:40.722Z,184.38
2022-12-19T21:42:22.907Z,182.00
2022-12-19T21:45:11.759Z,184.63
2022-12-19T21:48:00.051Z,180.70
2022-12-19T21:50:42.706Z,180.80
2022-12-19T21:53:24.905Z,190.57
2022-12-19T21:56:41.652Z,191.80
2022-12-19T21:59:30.656Z,189.88
2022-12-19T22:02:14.008Z,187.40
2022-12-19T22:05:02.750Z,182.40
2022-12-19T22:07:51.781Z,184.38
2022-12-19T22:10:35.935Z,186.68
2022-12-19T22:13:24.857Z,180.77
2022-12-19T22:16:08.482Z,179.95
2022-12-19T22:19:00.743Z,187.95
2022-12-19T22:21:43.167Z,178.55
2022-12-19T22:24:32.756Z,179.20
2022-12-19T22:27:23.792Z,181.32
2022-12-19T22:30:10.929Z,180.25
2022-12-19T22:32:53.919Z,177.80
2022-12-19T22:35:42.826Z,182.88
2022-12-19T22:38:32.029Z,185.98
2022-12-19T22:41:15.752Z,180.35
2022-12-19T22:44:11.552Z,180.88
2022-12-19T22:47:00.696Z,183.60
2022-12-19T22:49:43.083Z,185.25
2022-12-19T22:52:32.665Z,182.20
2022-12-19T22:55:16.003Z,182.80
2022-12-19T22:58:04.791Z,187.40
2022-12-19T23:00:47.004Z,183.20
2022-12-19T23:03:35.882Z,185.50
2022-12-19T23:06:18.026Z,177.68
2022-12-19T23:09:06.625Z,180.32
2022-12-19T23:11:51.091Z,184.75
2022-12-19T23:17:21.008Z,179.63
2022-12-19T23:20:09.736Z,178.30
2022-12-19T23:22:52.064Z,181.40
2022-12-19T23:25:49.729Z,185.38
2022-12-19T23:28:32.004Z,184.05
2022-12-19T23:31:21.696Z,184.77
2022-12-19T23:34:11.673Z,188.68
2022-12-19T23:37:10.171Z,193.23
2022-12-19T23:39:59.691Z,193.90
2022-12-19T23:42:42.055Z,190.30
2022-12-19T23:45:30.880Z,188.82
2022-12-19T23:48:13.018Z,198.52
2022-12-19T23:51:01.693Z,191.98
2022-12-19T23:53:44.993Z,195.90
2022-12-19T23:56:36.997Z,195.82
2022-12-19T23:59:25.032Z,195.93
